Time;durP1;ratioP1;P1;durP2;ratioP2;P2;SDS_P1;SDS_P2;PMS_P1;PMS_P2;Temp;Humidity;BMP_temperature;BMP_pressure;BME280_temperature;BME280_humidity;BME280_pressure;Samples;Min_cycle;Max_cycle;Signal;HPM_P1;HPM_P2
2024/03/30 00:01:42;;;;;;;9.00;4.90;;;;;;;-0.80;100.00;142079.67;106732;1277;22589;-64
2024/03/30 00:04:28;;;;;;;11.60;5.40;;;;;;;-0.79;100.00;142082.64;106713;1277;22520;-67
2024/03/30 00:07:14;;;;;;;10.50;4.80;;;;;;;-0.80;100.00;142080.66;106698;1277;22524;-69
2024/03/30 00:10:00;;;;;;;9.60;5.00;;;;;;;-0.82;100.00;142076.95;106652;1277;24206;-62
2024/03/30 00:12:48;;;;;;;8.30;4.80;;;;;;;-0.83;100.00;142072.22;106679;1277;22618;-65
2024/03/30 00:15:36;;;;;;;16.10;5.50;;;;;;;-0.85;100.00;142067.98;106748;1277;22539;-67
2024/03/30 00:18:22;;;;;;;7.20;4.50;;;;;;;-0.86;100.00;142066.27;106613;1278;22527;-64
2024/03/30 00:21:14;;;;;;;8.50;5.10;;;;;;;-0.87;100.00;142063.53;106621;1278;25240;-62
2024/03/30 00:24:00;;;;;;;8.90;4.30;;;;;;;-0.90;100.00;142057.30;106600;1278;24241;-64
2024/03/30 00:26:46;;;;;;;7.20;4.60;;;;;;;-0.94;100.00;142047.86;106624;1278;22609;-69
2024/03/30 00:29:34;;;;;;;8.60;4.40;;;;;;;-0.99;100.00;142035.45;106618;1278;24247;-66
2024/03/30 00:32:22;;;;;;;9.80;4.60;;;;;;;-1.02;100.00;142025.50;106601;1278;23193;-67
2024/03/30 00:35:08;;;;;;;8.50;4.70;;;;;;;-1.05;100.00;142020.80;106690;1277;22517;-63
2024/03/30 00:37:54;;;;;;;7.70;4.30;;;;;;;-1.04;100.00;142023.05;106679;1260;22634;-65
2024/03/30 00:40:40;;;;;;;9.40;4.50;;;;;;;-1.02;100.00;142027.50;106675;1260;25284;-68
2024/03/30 00:43:27;;;;;;;6.70;4.20;;;;;;;-1.00;100.00;142031.97;106669;1277;25360;-62
2024/03/30 00:46:13;;;;;;;7.30;4.10;;;;;;;-0.99;100.00;142033.45;106680;1277;22524;-64
2024/03/30 00:48:59;;;;;;;9.80;4.50;;;;;;;-0.99;100.00;142034.94;106636;1277;24456;-66
2024/03/30 00:51:46;;;;;;;7.30;4.10;;;;;;;-0.97;100.00;142038.19;106691;1277;25236;-66
2024/03/30 00:54:32;;;;;;;10.10;4.20;;;;;;;-0.95;100.00;142043.16;106641;1278;25353;-61
2024/03/30 00:57:18;;;;;;;5.80;3.90;;;;;;;-0.92;100.00;142051.84;106642;1278;25376;-62
2024/03/30 01:00:05;;;;;;;6.50;4.20;;;;;;;-0.88;100.00;142061.28;106633;1278;24266;-62
2024/03/30 01:02:51;;;;;;;6.40;4.00;;;;;;;-0.86;100.00;142067.00;106634;1260;22602;-64
2024/03/30 01:05:37;;;;;;;8.70;3.80;;;;;;;-0.85;100.00;142068.48;106639;1278;22664;-65
2024/03/30 01:08:24;;;;;;;7.50;4.00;;;;;;;-0.86;100.00;142065.02;106690;1277;24204;-69
2024/03/30 01:11:10;;;;;;;8.10;4.20;;;;;;;-0.89;100.00;142058.78;106623;1277;22533;-61
2024/03/30 01:13:57;;;;;;;6.40;3.60;;;;;;;-0.91;100.00;142053.59;106670;1277;25363;-65
2024/03/30 01:16:45;;;;;;;7.50;4.30;;;;;;;-0.92;100.00;142052.33;106633;1277;22547;-65
2024/03/30 01:19:32;;;;;;;7.00;4.40;;;;;;;-0.91;100.00;142054.34;106664;1277;25346;-62
2024/03/30 01:22:19;;;;;;;8.50;4.30;;;;;;;-0.93;100.00;142049.11;106645;1277;25463;-66
2024/03/30 01:25:06;;;;;;;7.80;4.20;;;;;;;-0.97;100.00;142039.92;106803;1267;22521;-68
2024/03/30 01:27:55;;;;;;;9.80;4.40;;;;;;;-1.01;100.00;142028.73;106661;1276;24266;-68
2024/03/30 01:30:41;;;;;;;7.70;4.20;;;;;;;-1.06;100.00;142017.08;106701;1277;22528;-64
2024/03/30 01:33:28;;;;;;;9.40;4.30;;;;;;;-1.10;100.00;142009.13;106689;1277;25240;-62
2024/03/30 01:36:15;;;;;;;7.90;4.30;;;;;;;-1.08;100.00;142011.63;106672;1277;22525;-66
2024/03/30 01:39:01;;;;;;;9.50;4.10;;;;;;;-1.06;100.00;142015.83;106686;1277;22523;-65
2024/03/30 01:41:47;;;;;;;8.10;4.70;;;;;;;-1.04;100.00;142022.53;106664;1277;22528;-69
2024/03/30 01:44:33;;;;;;;8.40;4.40;;;;;;;-1.04;100.00;142021.30;106680;1261;25353;-64
2024/03/30 01:47:21;;;;;;;7.50;4.30;;;;;;;-1.06;100.00;142018.31;106753;1277;22521;-66
2024/03/30 01:50:08;;;;;;;8.20;4.50;;;;;;;-1.06;100.00;142018.08;106691;1277;22539;-69
2024/03/30 01:52:56;;;;;;;7.50;4.10;;;;;;;-1.04;100.00;142022.28;106705;1277;22523;-67
2024/03/30 01:55:43;;;;;;;7.60;4.30;;;;;;;-1.01;100.00;142030.22;106730;1277;22787;-67
2024/03/30 01:58:30;;;;;;;10.00;4.00;;;;;;;-0.97;100.00;142038.67;106713;1277;24215;-69
2024/03/30 02:01:17;;;;;;;7.20;4.60;;;;;;;-0.95;100.00;142044.14;106695;1277;24261;-70
2024/03/30 02:04:04;;;;;;;9.60;5.10;;;;;;;-0.95;100.00;142045.63;106715;1277;25307;-69
2024/03/30 02:06:52;;;;;;;11.10;6.00;;;;;;;-0.95;100.00;142044.13;106697;1277;22531;-65
2024/03/30 02:09:39;;;;;;;8.50;3.90;;;;;;;-0.94;100.00;142047.13;110286;1277;22115;-70
2024/03/30 02:12:25;;;;;;;8.10;4.50;;;;;;;-0.91;100.00;142055.08;110236;1277;22100;-65
2024/03/30 02:15:11;;;;;;;8.40;5.30;;;;;;;-0.85;100.00;142068.50;110270;1277;22122;-63
2024/03/30 02:17:57;;;;;;;7.90;4.30;;;;;;;-0.78;100.00;142085.38;110035;1277;199592;-64
2024/03/30 02:20:43;;;;;;;7.80;4.90;;;;;;;-0.72;100.00;142100.78;110246;1277;22694;-64
2024/03/30 02:23:29;;;;;;;8.40;4.50;;;;;;;-0.67;100.00;142112.97;110265;1277;22108;-70
2024/03/30 02:26:15;;;;;;;7.30;4.40;;;;;;;-0.62;100.00;142123.39;110266;1272;22105;-65
2024/03/30 02:29:04;;;;;;;7.20;4.00;;;;;;;-0.58;100.00;142133.34;110252;1272;22112;-60
2024/03/30 02:31:50;;;;;;;8.70;4.40;;;;;;;-0.55;100.00;142139.78;110601;1270;22114;-69
2024/03/30 02:34:37;;;;;;;7.00;4.30;;;;;;;-0.51;100.00;142150.50;110286;1269;22114;-64
2024/03/30 02:37:23;;;;;;;8.60;5.10;;;;;;;-0.47;100.00;142160.41;110295;1277;22110;-67
2024/03/30 02:40:10;;;;;;;8.20;5.00;;;;;;;-0.44;100.00;142168.38;110671;1256;22947;-69
2024/03/30 02:42:56;;;;;;;11.30;5.90;;;;;;;-0.42;100.00;142172.59;110486;1271;22142;-65
2024/03/30 02:45:42;;;;;;;12.40;5.60;;;;;;;-0.43;100.00;142170.38;110356;1277;22075;-64
2024/03/30 02:48:28;;;;;;;8.00;5.00;;;;;;;-0.41;100.00;142173.84;110280;1277;22115;-71
2024/03/30 02:51:14;;;;;;;10.70;6.00;;;;;;;-0.39;100.00;142179.80;110357;1277;22822;-66
2024/03/30 02:54:00;;;;;;;8.70;5.20;;;;;;;-0.35;100.00;142189.73;110270;1277;22133;-65
2024/03/30 02:56:46;;;;;;;10.50;5.40;;;;;;;-0.33;100.00;142195.20;110254;1277;22803;-62
2024/03/30 02:59:32;;;;;;;9.70;6.30;;;;;;;-0.31;100.00;142200.16;110372;1277;22256;-67
2024/03/30 03:02:18;;;;;;;11.00;5.90;;;;;;;-0.32;100.00;142198.20;110217;1272;22103;-71
2024/03/30 03:05:04;;;;;;;8.80;6.10;;;;;;;-0.32;100.00;142196.70;110253;1277;22128;-64
2024/03/30 03:07:50;;;;;;;8.80;6.10;;;;;;;-0.34;100.00;142192.47;110344;1277;22150;-60
2024/03/30 03:10:36;;;;;;;9.80;6.10;;;;;;;-0.33;100.00;142194.22;110244;1277;22820;-70
2024/03/30 03:13:22;;;;;;;10.30;6.10;;;;;;;-0.29;100.00;142205.64;110236;1277;22074;-68
2024/03/30 03:16:09;;;;;;;9.10;5.20;;;;;;;-0.24;100.00;142216.59;110245;1277;22200;-67
2024/03/30 03:18:55;;;;;;;9.50;5.50;;;;;;;-0.22;100.00;142223.03;110271;1277;22097;-65
2024/03/30 03:21:41;;;;;;;10.70;6.30;;;;;;;-0.20;100.00;142225.75;110342;1271;22119;-71
2024/03/30 03:24:27;;;;;;;11.20;6.70;;;;;;;-0.22;100.00;142223.03;110247;1277;22856;-70
2024/03/30 03:27:13;;;;;;;11.40;7.00;;;;;;;-0.25;100.00;142213.84;110263;1277;22115;-65
2024/03/30 03:29:59;;;;;;;12.90;7.60;;;;;;;-0.28;100.00;142207.63;110205;1277;22147;-60
2024/03/30 03:32:45;;;;;;;11.70;7.00;;;;;;;-0.28;100.00;142207.13;110251;1270;22796;-70
2024/03/30 13:12:39;;;;;;;4.10;1.80;;;;;;;11.64;48.04;145116.70;104443;1290;557398;-64
2024/03/30 13:15:25;;;;;;;9.10;2.90;;;;;;;11.68;47.72;145125.97;106272;1281;115548;-68
2024/03/30 13:18:12;;;;;;;4.60;2.60;;;;;;;11.78;47.72;145150.08;106550;1281;22608;-65
2024/03/30 13:20:58;;;;;;;6.10;2.40;;;;;;;11.88;47.14;145175.97;106507;1264;24214;-66
2024/03/30 13:23:45;;;;;;;5.20;2.20;;;;;;;11.91;46.99;145183.53;106285;1282;22543;-67
2024/03/30 13:26:33;;;;;;;6.90;2.40;;;;;;;11.83;47.02;145162.91;106365;1282;22572;-67
2024/03/30 13:29:20;;;;;;;7.10;2.80;;;;;;;11.55;47.63;145095.59;106251;1264;22539;-66
2024/03/30 13:32:07;;;;;;;5.00;2.30;;;;;;;11.50;47.84;145082.05;106331;1260;22772;-66
2024/03/30 13:34:54;;;;;;;7.10;2.70;;;;;;;11.59;47.83;145104.89;106364;1281;22532;-65
2024/03/30 13:37:43;;;;;;;5.70;2.30;;;;;;;11.67;47.31;145122.72;106490;1280;25457;-67
2024/03/30 13:40:30;;;;;;;9.00;3.10;;;;;;;11.63;47.50;145114.42;106239;1281;22526;-65
2024/03/30 13:43:17;;;;;;;7.00;2.70;;;;;;;11.59;47.10;145103.14;106543;1281;24265;-66
2024/03/30 13:46:03;;;;;;;5.20;2.30;;;;;;;11.50;46.98;145082.30;106410;1264;22533;-65
2024/03/30 13:48:49;;;;;;;7.10;3.40;;;;;;;11.34;47.35;145042.14;106388;1264;22537;-61
2024/03/30 13:51:36;;;;;;;11.00;3.30;;;;;;;11.32;47.62;145037.84;106320;1264;22587;-66
2024/03/30 13:54:23;;;;;;;11.10;2.60;;;;;;;11.32;46.97;145037.36;106601;1273;24246;-65
2024/03/30 13:57:12;;;;;;;5.90;2.50;;;;;;;11.23;46.91;145016.03;106804;1266;24384;-65
2024/03/30 13:59:59;;;;;;;6.10;2.60;;;;;;;11.14;47.28;144993.17;106838;1277;22529;-64
2024/03/30 14:02:45;;;;;;;5.80;3.10;;;;;;;11.02;47.78;144964.33;106622;1256;26495;-64
2024/03/30 14:05:32;;;;;;;8.90;3.20;;;;;;;10.93;48.09;144941.25;106492;1275;22539;-62
2024/03/30 14:08:18;;;;;;;7.60;2.80;;;;;;;10.83;48.43;144917.66;106792;1272;22534;-67
2024/03/30 14:11:05;;;;;;;8.50;2.50;;;;;;;10.67;48.54;144879.28;106578;1264;22530;-64
2024/03/30 14:13:51;;;;;;;7.20;2.90;;;;;;;10.49;49.22;144834.38;106499;1265;22526;-66
2024/03/30 14:16:42;;;;;;;6.70;2.50;;;;;;;10.34;49.57;144797.50;106637;1275;22568;-65
2024/03/30 14:19:29;;;;;;;7.10;3.00;;;;;;;10.29;50.03;144784.72;106507;1278;22667;-62
2024/03/30 14:22:15;;;;;;;7.90;3.20;;;;;;;10.28;50.54;144782.67;106589;1270;25247;-64
2024/03/30 14:25:02;;;;;;;5.10;2.40;;;;;;;10.26;50.92;144778.16;106412;1281;22529;-67
2024/03/30 14:27:48;;;;;;;6.90;2.70;;;;;;;10.22;50.97;144768.34;106269;1264;22532;-60
2024/03/30 14:30:35;;;;;;;6.40;2.60;;;;;;;10.14;51.44;144748.80;106380;1265;25348;-61
2024/03/30 14:33:27;;;;;;;5.50;2.50;;;;;;;10.08;51.92;144735.25;106535;1272;22536;-65
2024/03/30 14:36:25;;;;;;;5.10;2.30;;;;;;;10.07;51.80;144732.50;106598;1272;22538;-66
2024/03/30 14:39:12;;;;;;;5.40;2.80;;;;;;;10.02;51.74;144719.47;106470;1264;22554;-68
2024/03/30 14:41:59;;;;;;;6.10;2.80;;;;;;;9.97;51.73;144707.19;106442;1272;22529;-67
2024/03/30 14:44:50;;;;;;;5.90;2.70;;;;;;;9.96;51.94;144703.94;106504;1279;25301;-64
2024/03/30 14:47:36;;;;;;;9.80;3.40;;;;;;;9.98;52.27;144711.20;106528;1272;22546;-66
2024/03/30 14:50:23;;;;;;;5.80;3.00;;;;;;;10.01;52.03;144717.22;106609;1279;25474;-67
2024/03/30 14:53:10;;;;;;;6.30;2.70;;;;;;;10.00;52.35;144714.72;106516;1275;24222;-63
2024/03/30 14:55:58;;;;;;;8.00;3.20;;;;;;;10.01;51.85;144716.22;106374;1262;22529;-64
2024/03/30 14:58:44;;;;;;;8.20;3.00;;;;;;;10.07;52.11;144730.50;106422;1280;22658;-63
2024/03/30 15:01:31;;;;;;;5.00;2.70;;;;;;;10.10;52.19;144740.05;106363;1281;22527;-66
2024/03/30 15:04:17;;;;;;;5.50;2.90;;;;;;;10.09;52.03;144737.03;106479;1274;25345;-65
2024/03/30 15:07:05;;;;;;;6.50;3.00;;;;;;;10.06;52.24;144729.75;106543;1281;25400;-64
2024/03/30 15:09:53;;;;;;;6.10;2.90;;;;;;;10.05;52.27;144727.50;106424;1281;22787;-61
2024/03/30 15:12:40;;;;;;;8.30;3.10;;;;;;;10.04;52.73;144723.72;106461;1264;22539;-64
2024/03/30 15:15:26;;;;;;;6.20;2.90;;;;;;;10.00;52.53;144713.44;106241;1281;22660;-64
2024/03/30 15:18:12;;;;;;;6.20;2.70;;;;;;;9.92;52.91;144694.91;106335;1281;22534;-67
2024/03/30 15:20:59;;;;;;;7.40;2.90;;;;;;;9.86;52.90;144680.36;106514;1279;22546;-63
2024/03/30 15:23:48;;;;;;;6.80;3.30;;;;;;;9.83;52.98;144672.59;106598;1263;22533;-64
2024/03/30 15:26:34;;;;;;;8.40;3.20;;;;;;;9.78;53.17;144662.05;106606;1279;22988;-65
2024/03/30 15:29:20;;;;;;;9.40;3.70;;;;;;;9.72;53.48;144646.25;106549;1279;24226;-66
2024/03/30 15:32:15;;;;;;;6.30;3.20;;;;;;;9.68;53.88;144635.48;106568;1264;22523;-65
2024/03/30 15:35:02;;;;;;;6.60;3.30;;;;;;;9.60;54.51;144616.94;106550;1279;24209;-65
2024/03/30 15:37:50;;;;;;;8.70;2.90;;;;;;;9.53;54.93;144600.39;106631;1279;24306;-67
2024/03/30 15:40:37;;;;;;;7.10;3.30;;;;;;;9.47;55.41;144583.59;106538;1279;22539;-65
2024/03/30 15:43:24;;;;;;;7.80;3.20;;;;;;;9.40;55.59;144567.55;106611;1263;22529;-63
2024/03/30 15:46:11;;;;;;;5.80;3.10;;;;;;;9.34;55.83;144554.53;106607;1279;24199;-66
2024/03/30 15:49:01;;;;;;;9.40;3.80;;;;;;;9.28;56.26;144539.50;106587;1279;24269;-66
2024/03/30 15:51:47;;;;;;;6.20;3.40;;;;;;;9.22;56.53;144523.69;106565;1279;22527;-62
2024/03/30 15:54:33;;;;;;;7.20;3.40;;;;;;;9.17;56.55;144509.67;106728;1272;22571;-66
2024/03/30 15:57:20;;;;;;;7.70;3.70;;;;;;;9.10;56.61;144495.16;106577;1280;22660;-63
2024/03/30 16:00:07;;;;;;;13.20;4.40;;;;;;;9.07;56.17;144485.38;106649;1265;24948;-64
2024/03/30 16:02:53;;;;;;;7.60;3.30;;;;;;;9.03;56.54;144477.59;106546;1280;22530;-66
2024/03/30 16:05:39;;;;;;;10.00;3.70;;;;;;;8.97;56.71;144461.06;106482;1281;22527;-65
2024/03/30 16:08:26;;;;;;;6.60;3.00;;;;;;;8.89;56.74;144444.30;106509;1264;22601;-65
2024/03/30 16:11:12;;;;;;;8.50;3.50;;;;;;;8.83;57.07;144428.00;106511;1278;22534;-64
2024/03/30 16:13:58;;;;;;;7.90;3.50;;;;;;;8.77;57.31;144414.00;106581;1279;25373;-64
2024/03/30 16:16:45;;;;;;;9.10;3.00;;;;;;;8.70;57.36;144397.19;106685;1261;22529;-66
2024/03/30 16:19:31;;;;;;;10.00;3.70;;;;;;;8.65;57.66;144384.66;106605;1279;22534;-64
2024/03/30 16:22:17;;;;;;;8.60;3.80;;;;;;;8.60;58.03;144371.41;106613;1279;22527;-68
2024/03/30 16:25:04;;;;;;;9.60;3.50;;;;;;;8.55;58.31;144358.13;106933;1274;22529;-64
2024/03/30 16:27:50;;;;;;;6.30;3.50;;;;;;;8.47;58.75;144339.84;106629;1275;25474;-62
2024/03/30 16:30:41;;;;;;;7.80;3.30;;;;;;;8.41;58.99;144325.05;110104;1279;22368;-64
2024/03/30 16:33:27;;;;;;;12.00;4.50;;;;;;;8.37;59.24;144315.27;110068;1279;22114;-64
2024/03/30 16:36:16;;;;;;;8.10;4.30;;;;;;;8.31;59.56;144301.48;110138;1258;22203;-63
2024/03/30 16:39:02;;;;;;;9.50;5.10;;;;;;;8.28;59.88;144292.22;110176;1258;22143;-65
2024/03/30 16:42:03;;;;;;;9.10;4.00;;;;;;;8.24;60.32;144282.95;110147;1261;22879;-64
2024/03/30 16:44:50;;;;;;;9.60;4.50;;;;;;;8.20;60.77;144274.19;110224;1262;22931;-64
2024/03/30 16:47:48;;;;;;;8.20;3.90;;;;;;;8.16;60.98;144263.42;110078;1279;22114;-66
2024/03/30 16:50:34;;;;;;;8.90;4.40;;;;;;;8.12;61.37;144252.67;110076;1280;22120;-65
2024/03/30 16:53:20;;;;;;;7.70;4.40;;;;;;;8.08;61.70;144244.63;110079;1279;22513;-62
2024/03/30 16:56:07;;;;;;;8.70;3.80;;;;;;;8.03;62.05;144231.89;110058;1279;22317;-65
2024/03/30 16:58:53;;;;;;;8.30;4.30;;;;;;;7.98;62.58;144220.61;110343;1258;22158;-65
2024/03/30 17:01:39;;;;;;;9.80;4.10;;;;;;;7.96;62.93;144215.63;110112;1259;22344;-66
2024/03/30 17:04:25;;;;;;;9.50;4.30;;;;;;;7.95;63.03;144212.09;110531;1260;22127;-67
2024/03/30 17:07:11;;;;;;;8.90;4.60;;;;;;;7.93;63.44;144206.59;110022;1281;22128;-63
2024/03/30 17:09:57;;;;;;;10.40;4.60;;;;;;;7.89;63.70;144197.59;110132;1280;22932;-65
2024/03/30 17:12:45;;;;;;;12.70;5.10;;;;;;;7.85;63.96;144188.08;110014;1281;22126;-63
2024/03/30 17:15:31;;;;;;;13.30;5.70;;;;;;;7.82;64.11;144181.81;110199;1262;22105;-66
2024/03/30 17:18:17;;;;;;;12.20;6.30;;;;;;;7.77;64.31;144169.06;110013;1280;22344;-62
2024/03/30 17:21:03;;;;;;;13.90;7.90;;;;;;;7.73;64.34;144159.55;110152;1260;22149;-67
2024/03/30 17:23:50;;;;;;;16.50;7.30;;;;;;;7.70;64.43;144151.80;110049;1281;22841;-63
2024/03/30 17:26:37;;;;;;;21.20;8.40;;;;;;;7.67;64.37;144143.03;110039;1280;22082;-67
2024/03/30 17:29:23;;;;;;;21.00;8.40;;;;;;;7.63;64.46;144135.02;110294;1258;22128;-65
2024/03/30 17:32:09;;;;;;;23.50;7.10;;;;;;;7.60;64.62;144128.52;110194;1278;22128;-63
2024/03/30 17:34:59;;;;;;;12.80;6.90;;;;;;;7.60;64.55;144127.75;110286;1277;22124;-63
2024/03/30 17:37:47;;;;;;;13.30;6.20;;;;;;;7.63;64.43;144133.50;110283;1277;22123;-64
2024/03/30 17:40:33;;;;;;;15.20;6.20;;;;;;;7.67;64.18;144143.03;110304;1277;22531;-66
2024/03/30 17:43:19;;;;;;;14.20;6.60;;;;;;;7.70;64.16;144151.78;110279;1277;22160;-64
2024/03/30 17:46:11;;;;;;;11.50;6.10;;;;;;;7.71;63.94;144154.03;110280;1277;22130;-66
2024/03/30 17:48:57;;;;;;;12.50;6.20;;;;;;;7.73;63.85;144159.55;110455;1258;22146;-62
2024/03/30 17:51:44;;;;;;;16.70;7.40;;;;;;;7.73;63.47;144158.03;110456;1260;22337;-63
2024/03/30 17:54:30;;;;;;;12.90;6.60;;;;;;;7.77;63.40;144168.30;110234;1274;22195;-64
2024/03/30 17:57:16;;;;;;;12.70;6.20;;;;;;;7.78;63.13;144171.28;110279;1270;22586;-67
2024/03/30 18:00:05;;;;;;;11.80;6.70;;;;;;;7.79;63.03;144172.56;110377;1269;22903;-64
2024/03/30 18:02:53;;;;;;;13.60;6.50;;;;;;;7.77;62.96;144168.80;110337;1272;22193;-67
2024/03/30 18:05:46;;;;;;;14.00;6.40;;;;;;;7.77;62.84;144167.81;110327;1273;22145;-66
2024/03/30 18:08:33;;;;;;;;;;;;;;;7.82;61.89;144181.06;110457;1269;22428;-64
2024/03/30 18:11:20;;;;;;;15.80;6.90;;;;;;;7.87;61.82;144193.84;110377;1276;22218;-63
2024/03/30 18:14:07;;;;;;;14.10;7.00;;;;;;;7.85;62.09;144188.09;110444;1276;22239;-65
2024/03/30 18:16:52;;;;;;;13.60;7.50;;;;;;;7.81;62.34;144180.06;110459;1261;22390;-68
2024/03/30 18:19:38;;;;;;;13.80;7.80;;;;;;;7.79;62.50;144174.81;110439;1268;23032;-62
2024/03/30 18:22:25;;;;;;;13.40;7.00;;;;;;;7.79;62.66;144172.81;110498;1268;22291;-66
2024/03/30 18:25:11;;;;;;;13.00;7.50;;;;;;;7.77;62.36;144167.30;110559;1268;22146;-64
2024/03/30 18:27:57;;;;;;;13.60;7.50;;;;;;;7.76;62.58;144166.05;110308;1276;22330;-63
2024/03/30 18:30:47;;;;;;;15.50;6.70;;;;;;;7.76;62.28;144165.28;110423;1268;22869;-65
2024/03/30 18:33:33;;;;;;;14.70;8.60;;;;;;;7.77;62.43;144169.55;110260;1269;22162;-64
2024/03/30 18:36:19;;;;;;;15.20;8.20;;;;;;;7.77;62.42;144168.55;110508;1269;22346;-63
2024/03/30 18:39:06;;;;;;;13.60;8.00;;;;;;;7.74;62.37;144160.81;110431;1276;22354;-62
2024/03/30 18:41:52;;;;;;;15.80;7.70;;;;;;;7.71;62.72;144154.03;110422;1270;22132;-65
2024/03/30 18:44:39;;;;;;;13.90;7.60;;;;;;;7.66;62.69;144142.02;110625;1258;22247;-67
2024/03/30 18:47:25;;;;;;;18.30;8.00;;;;;;;7.63;63.01;144133.00;110431;1272;22345;-65
2024/03/30 18:50:15;;;;;;;17.10;7.50;;;;;;;7.59;63.19;144125.25;110509;1261;22328;-67
2024/03/30 18:53:02;;;;;;;13.90;7.50;;;;;;;7.57;63.31;144120.25;110328;1275;22872;-64
2024/03/30 18:55:48;;;;;;;14.30;7.50;;;;;;;7.55;63.51;144114.00;110500;1270;22143;-66
2024/03/30 18:58:35;;;;;;;15.80;7.30;;;;;;;7.53;63.42;144109.50;110552;1269;22213;-62
2024/03/30 19:01:22;;;;;;;14.60;6.80;;;;;;;7.52;63.43;144108.25;110511;1258;22885;-65
2024/03/30 19:04:09;;;;;;;10.70;6.20;;;;;;;7.48;63.60;144097.97;110423;1269;22298;-65
2024/03/30 19:06:55;;;;;;;11.80;5.80;;;;;;;7.43;63.70;144084.47;110306;1277;22136;-67
2024/03/30 19:09:43;;;;;;;9.90;6.00;;;;;;;7.37;63.88;144071.47;110283;1277;22284;-60
2024/03/30 19:12:33;;;;;;;10.50;5.80;;;;;;;7.35;63.80;144067.22;110278;1277;22143;-62
2024/03/30 19:15:19;;;;;;;14.20;6.00;;;;;;;7.36;63.80;144069.47;110380;1277;22906;-63
2024/03/30 19:18:05;;;;;;;15.60;5.70;;;;;;;7.36;63.72;144068.22;110288;1277;22142;-65
2024/03/30 19:20:51;;;;;;;15.20;5.40;;;;;;;7.34;63.67;144064.72;110277;1269;23035;-64
2024/03/30 19:23:37;;;;;;;11.80;5.30;;;;;;;7.33;63.87;144060.97;110422;1273;22863;-64
2024/03/30 19:26:23;;;;;;;9.70;5.30;;;;;;;7.29;63.90;144051.20;110456;1272;22135;-64
2024/03/30 19:29:11;;;;;;;10.60;5.30;;;;;;;7.27;63.94;144046.44;110279;1276;22168;-65
2024/03/30 19:31:58;;;;;;;14.70;6.40;;;;;;;7.26;64.29;144042.20;110284;1276;22194;-67
2024/03/30 19:34:45;;;;;;;9.30;4.80;;;;;;;7.19;64.40;144026.69;110308;1276;22205;-66
2024/03/30 19:37:31;;;;;;;10.70;4.60;;;;;;;7.15;64.47;144018.92;110307;1258;22135;-65
2024/03/30 19:40:17;;;;;;;14.40;5.80;;;;;;;7.15;64.58;144016.67;110355;1269;22200;-63
2024/03/30 19:43:03;;;;;;;11.00;5.10;;;;;;;7.14;64.52;144015.66;110224;1276;22254;-65
2024/03/30 19:45:49;;;;;;;10.40;4.40;;;;;;;7.13;64.72;144011.67;110285;1258;22407;-64
2024/03/30 19:48:35;;;;;;;9.00;5.00;;;;;;;7.07;64.92;143997.92;110305;1277;22193;-65
2024/03/30 19:51:21;;;;;;;10.10;4.70;;;;;;;7.04;65.20;143991.42;110379;1269;22787;-63
2024/03/30 19:54:08;;;;;;;10.30;4.80;;;;;;;7.02;65.24;143983.66;110331;1261;22351;-63
2024/03/30 19:56:54;;;;;;;11.20;5.10;;;;;;;6.99;65.55;143977.41;110526;1275;22342;-65
2024/03/30 19:59:41;;;;;;;11.20;4.70;;;;;;;6.93;65.76;143963.38;110504;1275;22425;-64
2024/03/30 20:02:27;;;;;;;9.30;4.30;;;;;;;6.87;66.08;143949.16;110474;1275;22202;-65
2024/03/30 20:05:16;;;;;;;11.30;5.00;;;;;;;6.82;66.42;143936.41;110533;1259;22207;-67
2024/03/30 20:08:03;;;;;;;11.20;5.00;;;;;;;6.78;66.66;143926.39;110585;1268;22349;-60
2024/03/30 20:10:49;;;;;;;10.20;4.30;;;;;;;6.74;66.86;143917.91;110512;1268;22131;-62
2024/03/30 20:13:35;;;;;;;10.00;4.90;;;;;;;6.71;66.99;143909.38;110512;1269;22432;-66
2024/03/30 20:16:21;;;;;;;12.00;4.70;;;;;;;6.66;67.31;143897.63;110550;1269;22138;-63
2024/03/30 20:19:07;;;;;;;12.60;4.40;;;;;;;6.61;67.62;143884.13;110549;1269;22390;-66
2024/03/30 20:21:54;;;;;;;13.00;5.10;;;;;;;6.57;67.88;143876.38;110526;1269;22335;-66
2024/03/30 20:24:40;;;;;;;10.10;4.50;;;;;;;6.53;68.23;143865.13;110516;1262;22117;-64
2024/03/30 20:27:26;;;;;;;10.50;4.50;;;;;;;6.49;68.49;143857.38;110315;1276;22829;-64
2024/03/30 20:30:12;;;;;;;9.80;4.30;;;;;;;6.46;68.68;143849.88;110767;1258;22132;-66
2024/03/30 20:32:58;;;;;;;10.30;4.90;;;;;;;6.44;68.98;143842.64;110320;1276;22136;-64
2024/03/30 20:35:44;;;;;;;9.50;5.00;;;;;;;6.41;69.29;143836.41;110322;1276;22132;-68
2024/03/30 20:38:32;;;;;;;8.00;4.30;;;;;;;6.39;69.50;143830.14;110305;1276;22125;-66
2024/03/30 20:41:19;;;;;;;11.40;5.20;;;;;;;6.35;69.83;143820.38;110341;1276;22339;-67
2024/03/30 20:44:08;;;;;;;10.00;4.70;;;;;;;6.28;70.26;143806.13;110319;1276;22898;-66
2024/03/30 20:46:54;;;;;;;10.00;5.60;;;;;;;6.25;70.60;143797.14;110313;1276;23071;-67
2024/03/30 20:49:40;;;;;;;9.40;4.70;;;;;;;6.20;70.95;143784.39;110331;1276;22165;-66
2024/03/30 20:52:26;;;;;;;9.60;4.50;;;;;;;6.14;71.26;143770.13;110308;1276;22118;-61
2024/03/30 20:55:12;;;;;;;11.20;4.90;;;;;;;6.09;71.65;143757.64;110323;1276;22135;-65
2024/03/30 20:57:58;;;;;;;13.50;5.00;;;;;;;6.05;72.02;143748.91;110321;1276;22126;-61
2024/03/30 21:00:44;;;;;;;9.00;4.00;;;;;;;6.04;72.36;143745.14;110326;1276;22133;-66
2024/03/30 21:03:31;;;;;;;14.10;5.50;;;;;;;6.02;72.52;143740.41;110314;1276;22114;-66
2024/03/30 21:06:17;;;;;;;8.90;4.40;;;;;;;5.99;72.73;143732.41;110314;1276;22852;-60
2024/03/30 21:09:03;;;;;;;11.50;4.50;;;;;;;5.93;73.12;143719.14;110320;1276;22090;-66
2024/03/30 21:11:50;;;;;;;13.20;4.70;;;;;;;5.88;73.56;143707.59;110311;1276;22804;-61
2024/03/30 21:14:36;;;;;;;9.80;4.40;;;;;;;5.86;73.85;143702.38;110461;1258;22283;-67
2024/03/30 21:17:22;;;;;;;17.60;4.40;;;;;;;5.83;74.20;143695.38;110273;1276;22136;-69
2024/03/30 21:20:09;;;;;;;7.30;4.00;;;;;;;5.82;74.50;143692.13;110298;1268;22326;-65
2024/03/30 21:22:56;;;;;;;11.50;4.50;;;;;;;5.80;74.59;143688.64;110226;1276;22087;-64
2024/03/30 21:25:43;;;;;;;9.50;4.60;;;;;;;5.78;74.93;143683.38;110762;1259;22122;-65
2024/03/30 21:28:29;;;;;;;10.30;4.60;;;;;;;5.74;75.21;143672.91;110682;1257;22110;-65
2024/03/30 21:31:15;;;;;;;12.90;4.60;;;;;;;5.70;75.63;143662.16;110343;1276;22136;-64
2024/03/30 21:34:01;;;;;;;11.50;4.10;;;;;;;5.65;76.11;143650.66;110571;1258;22143;-66
2024/03/30 21:36:47;;;;;;;13.90;5.00;;;;;;;5.60;76.49;143637.67;110871;1258;22100;-62
2024/03/30 21:39:33;;;;;;;10.50;3.80;;;;;;;5.55;77.02;143626.66;110361;1276;22092;-65
2024/03/30 21:42:21;;;;;;;10.60;4.20;;;;;;;5.49;77.48;143610.44;110865;1259;22397;-67
2024/03/30 21:45:09;;;;;;;11.10;4.50;;;;;;;5.44;77.92;143600.20;110335;1276;22121;-64
2024/03/30 21:47:56;;;;;;;11.20;4.30;;;;;;;5.38;78.34;143585.22;110441;1258;22183;-62
2024/03/30 21:50:59;;;;;;;10.20;4.30;;;;;;;5.33;78.88;143573.47;110499;1275;22175;-68
2024/03/30 21:53:45;;;;;;;12.50;5.00;;;;;;;5.27;79.38;143557.22;110481;1270;23036;-64
2024/03/30 21:56:31;;;;;;;12.30;4.50;;;;;;;5.21;80.13;143543.25;110273;1276;22393;-69
2024/03/30 21:59:17;;;;;;;11.50;4.50;;;;;;;5.17;80.60;143533.75;110241;1277;22137;-65
2024/03/30 22:02:04;;;;;;;13.90;5.90;;;;;;;5.13;81.10;143524.28;110272;1276;23011;-65
2024/03/30 22:04:53;;;;;;;10.10;4.50;;;;;;;5.10;81.48;143516.28;110469;1276;22115;-61
2024/03/30 22:07:40;;;;;;;12.00;4.40;;;;;;;5.05;82.05;143504.55;110275;1276;22803;-62
2024/03/30 22:10:26;;;;;;;13.30;4.70;;;;;;;5.03;82.41;143498.78;110414;1276;22488;-67
2024/03/30 22:13:12;;;;;;;13.30;4.50;;;;;;;5.02;82.90;143496.55;110253;1277;22103;-62
2024/03/30 22:15:58;;;;;;;8.30;4.10;;;;;;;5.00;82.82;143493.30;110281;1277;22091;-62
2024/03/30 22:18:44;;;;;;;9.70;4.10;;;;;;;4.97;83.38;143486.31;110267;1277;22117;-64
2024/03/30 22:21:31;;;;;;;11.80;4.50;;;;;;;4.96;83.87;143482.56;110280;1278;22181;-65
2024/03/30 22:24:17;;;;;;;13.30;4.50;;;;;;;4.95;84.32;143479.08;110261;1277;22143;-61